Pagrindinis puslapis
METAR-TAF:

METAR-TAF

Oro uostai :

Santos Dumont oro uostas

Rio de Žaneiras, Rio de Janeiro, Brazilija

platuma: 22-54S, ilguma: 043-10W, Aukštis: 3 m

Dabartinis oras

Ataskaita buvo paskelbta 41 minutes, ne 22:00 UTC
Vėjas 7 kt iš Pietų
Temperatūra 25°C
Drėgmė 89%
Slėgis 1013 hPa
Matomumas 10 km arba daugiau
nėra debesų žemiau 1500 m ir nėra kamuolinių lietaus debesų

METAR: SBRJ 162200Z 18007KT CAVOK 25/23 Q1013

Laikas: 19:41 (22:41 UTC)

Prognozė

Ataskaita buvo paskelbta 6 valandos ir 11 minutes, ne 16:30 UTC
Prognozė galioja nuo 16 metu 18 UTC su 17 metu 06 UTC
Vėjas 10 kt iš Pietų/Pietryčių
Matomumas 10 km arba daugiau
Mažai debesys ne aukštis 3000 ft
Tapsmas
nuo 16 metu 22 UTC su 16 metu 24 UTC
Vėjas 5 kt iš Rytų/Pietryčių
Matomumas 10 km arba daugiau
nėra debesų žemiau 1500 m ir nėra kamuolinių lietaus debesų
Tapsmas
nuo 17 metu 03 UTC su 17 metu 06 UTC
Vėjas 5 kt iš Šiaurės/Šiaurės Rytų

TAF: SBRJ 161630Z 1618/1706 16010KT 9999 FEW030 TX30/1618Z TN23/1706Z BECMG 1622/1624 12005KT CAVOK BECMG 1703/1706 03005KT RMK PGB

Orai ataskaitas ir orų prognozės (METAR, TAF).

turimą stotys yra geltonos ir raudonos taškus žemėlapyje.

Perkelti pele per norėdami pamatyti stoties vardą.

Tada spustelėkite, norėdami matyti oro stebėjimo ir prognozės.

Norėdami pakeisti žemėlapį: spustelėkite ant žalios mygtukų su juodo kryžiaus žemyn,; žalią mygtuką su brūkšneliu, jei norite nutolinti; arba žalių rodyklių gretimoms žemėlapius.


METAR-TAF: